VAM | Vabird-VBD

Virtual Vabird! Aerolínea Virtual de habla hispana, desde 2011




 INFORMACIÓN METAR y TAF
METAR FOR ENAL
ADDS - METARS form results

(2050 UTC 21 January 2021)
Data provider http://aviationweather.gov/metar/data/
 
METAR text: ENAL 212020Z VRB01KT CAVOK 04/01 Q0964
Conditions at: ENAL (ALESUND/VIGRA , NO) observed 2020 UTC 21 January 2021
Temperature: 4.0°C (39°F)
Dewpoint: 1.0°C (34°F) [RH = 81%]
Pressure (altimeter): 28.46 inches Hg (964.0 mb)
Winds: variable direction winds at 1 MPH (1 knots; 0.5 m/s)
Visibility: 6 or more miles (10+ km)
Ceiling: ceiling and visibility are OK
Clouds: unknown
Weather: no significant weather observed at this time

Forecast for: ENAL (ALESUND/VIGRA , NO)
Text: TAF ENAL 211700Z 2118/2122 12008KT 9999 FEW045 BKN080
Forecast period: 1800 to 2200 UTC 21 January 2021
Forecast type: FROM: standard forecast or significant change
Winds: from the ESE (120 degrees) at 9 MPH (8 knots; 4.1 m/s)
Visibility: 6 or more miles (10+ km)
Ceiling: 8000 feet AGL
Clouds: few clouds at 4500 feet AGL
broken clouds at 8000 feet AGL
Weather: no significant weather forecast for this period

 MAPA DE AEROPUERTO

 INFORMACIÓN DE PISTA